Time;durP1;ratioP1;P1;durP2;ratioP2;P2;SDS_P1;SDS_P2;PMS_P1;PMS_P2;Temp;Humidity;BMP_temperature;BMP_pressure;BME280_temperature;BME280_humidity;BME280_pressure;Samples;Min_cycle;Max_cycle;Signal;HPM_P1;HPM_P2
2022/07/09 00:00:42;;;;;;;4.93;2.00;;;;;;;13.88;84.36;97381.34;5037394;28;20221;-72
2022/07/09 00:03:08;;;;;;;2.90;1.70;;;;;;;13.64;84.98;97380.56;5036203;28;20204;-72
2022/07/09 00:05:35;;;;;;;4.00;1.95;;;;;;;13.87;84.55;97377.03;5037063;28;20228;-72
2022/07/09 00:08:01;;;;;;;4.30;1.75;;;;;;;13.96;84.48;97375.19;5036947;28;20213;-72
2022/07/09 00:10:28;;;;;;;4.20;1.90;;;;;;;13.98;84.33;97374.03;5036960;28;20220;-72
2022/07/09 00:12:54;;;;;;;5.13;1.98;;;;;;;13.65;85.35;97375.09;5036313;28;20211;-71
2022/07/09 00:15:20;;;;;;;3.40;1.90;;;;;;;13.59;84.92;97372.31;5036818;28;20225;-71
2022/07/09 00:17:48;;;;;;;3.50;1.60;;;;;;;13.60;84.56;97374.78;5036448;28;20228;-71
2022/07/09 00:20:15;;;;;;;3.15;1.75;;;;;;;13.45;84.95;97379.13;5036962;28;20615;-71
2022/07/09 00:22:41;;;;;;;2.55;1.80;;;;;;;13.58;85.31;97368.84;5035865;28;20685;-72
2022/07/09 00:25:08;;;;;;;4.43;2.13;;;;;;;13.64;86.04;97368.16;5032803;28;20204;-72
2022/07/09 00:27:34;;;;;;;3.17;2.00;;;;;;;13.74;85.98;97371.44;5037283;28;20673;-72
2022/07/09 00:30:01;;;;;;;3.45;2.00;;;;;;;13.57;86.16;97369.84;5036931;28;20446;-71
2022/07/09 00:32:27;;;;;;;3.53;1.90;;;;;;;13.50;86.47;97362.72;5035533;28;20216;-72
2022/07/09 00:34:55;;;;;;;13.65;2.38;;;;;;;13.47;86.57;97358.59;5037143;28;20228;-72
2022/07/09 00:37:21;;;;;;;2.75;1.70;;;;;;;13.46;85.90;97359.56;5037854;28;20228;-72
2022/07/09 00:39:48;;;;;;;8.18;2.00;;;;;;;13.30;86.77;97352.66;5036239;28;20225;-71
2022/07/09 00:42:14;;;;;;;3.60;1.98;;;;;;;13.38;87.02;97355.28;5035713;28;20208;-72
2022/07/09 00:44:41;;;;;;;3.47;1.83;;;;;;;13.38;87.46;97354.28;5036547;28;20216;-72
2022/07/09 00:47:08;;;;;;;3.47;1.63;;;;;;;13.26;88.64;97348.69;5036412;28;20208;-72
2022/07/09 00:49:39;;;;;;;3.58;1.65;;;;;;;13.26;90.39;97354.78;5036514;28;20603;-72
2022/07/09 00:52:10;;;;;;;2.92;2.28;;;;;;;13.45;89.82;97344.69;5037158;28;21233;-71
2022/07/09 00:54:37;;;;;;;3.55;1.80;;;;;;;13.26;90.10;97349.50;5035558;28;20316;-71
2022/07/09 00:57:06;;;;;;;5.57;2.05;;;;;;;13.62;89.87;97342.81;5036466;28;20213;-72
2022/07/09 00:59:33;;;;;;;5.38;1.98;;;;;;;13.61;90.27;97347.31;5036632;28;20232;-72
2022/07/09 01:02:01;;;;;;;6.13;2.40;;;;;;;13.80;90.11;97343.47;5036503;28;20232;-71
2022/07/09 01:04:27;;;;;;;3.42;2.00;;;;;;;13.67;90.45;97338.69;5035589;28;20208;-72
2022/07/09 01:06:54;;;;;;;7.32;2.08;;;;;;;13.71;91.78;97342.66;5036374;28;20208;-72
2022/07/09 01:09:22;;;;;;;4.50;2.50;;;;;;;14.15;90.79;97338.56;5036405;28;20229;-72
2022/07/09 01:11:48;;;;;;;9.80;2.70;;;;;;;14.15;88.62;97333.25;5036089;28;20517;-72
2022/07/09 01:14:15;;;;;;;3.38;1.92;;;;;;;14.11;88.93;97330.09;5035900;28;20221;-71
2022/07/09 01:16:41;;;;;;;2.95;2.00;;;;;;;14.08;89.66;97335.75;5036307;28;20216;-71
2022/07/09 01:19:08;;;;;;;2.85;2.30;;;;;;;14.10;90.83;97324.97;5036186;28;20233;-72
2022/07/09 01:21:36;;;;;;;3.38;2.10;;;;;;;14.22;92.12;97318.31;5036370;28;20213;-72
2022/07/09 01:24:03;;;;;;;5.80;2.40;;;;;;;14.39;91.09;97319.88;5032640;28;20296;-72
2022/07/09 01:26:30;;;;;;;4.00;2.15;;;;;;;14.38;90.56;97324.34;5035830;28;20208;-72
2022/07/09 01:28:57;;;;;;;4.00;1.98;;;;;;;14.27;91.60;97321.28;5038352;28;20229;-71
2022/07/09 01:31:23;;;;;;;5.10;2.67;;;;;;;14.19;91.86;97311.53;5040188;28;20210;-72
2022/07/09 01:33:50;;;;;;;4.30;2.50;;;;;;;14.09;92.70;97323.31;5038568;28;20670;-72
2022/07/09 01:36:17;;;;;;;3.83;2.58;;;;;;;14.46;92.87;97312.88;5039520;28;20201;-72
2022/07/09 01:38:45;;;;;;;4.93;2.35;;;;;;;14.53;92.92;97308.53;5039682;28;20701;-72
2022/07/09 01:41:11;;;;;;;3.83;2.13;;;;;;;14.46;92.67;97310.22;5038963;28;20208;-72
2022/07/09 01:43:37;;;;;;;3.40;2.50;;;;;;;14.40;93.26;97309.09;5038801;28;20212;-72
2022/07/09 01:46:04;;;;;;;6.22;2.90;;;;;;;14.66;92.54;97309.59;5039921;28;20197;-72
2022/07/09 01:48:34;;;;;;;10.50;2.97;;;;;;;14.67;91.88;97304.09;5039011;28;20208;-72
2022/07/09 01:51:00;;;;;;;4.93;2.45;;;;;;;14.60;92.68;97307.66;5039192;28;21305;-72
2022/07/09 01:53:27;;;;;;;4.68;2.80;;;;;;;14.64;92.20;97299.16;5039751;28;20204;-71
2022/07/09 01:55:54;;;;;;;5.45;3.00;;;;;;;14.80;91.79;97293.75;5039355;28;20225;-72
2022/07/09 01:58:21;;;;;;;4.20;2.60;;;;;;;14.82;91.64;97288.25;5039061;28;20212;-72
2022/07/09 02:00:48;;;;;;;2.30;2.10;;;;;;;14.65;91.75;97289.38;5039134;28;20252;-72
2022/07/09 02:03:15;;;;;;;4.65;2.60;;;;;;;14.58;91.39;97285.78;5039060;28;20205;-72
2022/07/09 02:05:41;;;;;;;9.48;2.60;;;;;;;14.59;90.60;97283.94;5038474;28;20209;-72
2022/07/09 02:08:07;;;;;;;5.15;2.30;;;;;;;14.37;92.19;97279.44;5039117;28;20991;-72
2022/07/09 02:10:34;;;;;;;4.63;2.40;;;;;;;14.31;91.85;97286.28;5039186;28;20225;-71
2022/07/09 02:13:02;;;;;;;6.55;2.85;;;;;;;14.55;92.53;97285.28;5038125;28;20201;-72
2022/07/09 02:15:28;;;;;;;7.68;2.90;;;;;;;14.59;91.41;97284.78;5038868;28;20251;-72
2022/07/09 02:17:55;;;;;;;4.35;2.47;;;;;;;14.55;91.03;97287.94;5039183;28;20661;-72
2022/07/09 02:20:22;;;;;;;9.02;3.00;;;;;;;14.05;92.27;97284.88;5038449;28;20237;-72
2022/07/09 02:22:49;;;;;;;5.55;2.70;;;;;;;13.95;92.78;97291.38;5038056;28;20218;-72
2022/07/09 02:25:15;;;;;;;4.28;2.72;;;;;;;14.00;93.12;97281.91;5035846;28;20209;-72
2022/07/09 02:27:42;;;;;;;6.80;3.00;;;;;;;14.06;93.70;97278.59;5038770;28;20677;-71
2022/07/09 02:30:10;;;;;;;6.90;3.03;;;;;;;13.99;94.10;97275.00;5038179;28;20225;-72
2022/07/09 02:32:38;;;;;;;5.10;2.88;;;;;;;13.94;94.70;97272.03;5037854;28;20216;-72
2022/07/09 02:35:05;;;;;;;5.90;2.63;;;;;;;14.21;92.93;97271.59;5038604;28;20320;-72
2022/07/09 02:37:31;;;;;;;5.80;2.47;;;;;;;14.10;93.53;97269.31;5037851;28;20201;-72
2022/07/09 02:39:58;;;;;;;8.30;2.67;;;;;;;14.03;93.21;97268.34;5038265;28;20225;-72
2022/07/09 02:42:24;;;;;;;4.95;2.83;;;;;;;13.94;93.46;97268.53;5038130;28;20212;-72
2022/07/09 02:44:51;;;;;;;3.95;2.70;;;;;;;13.98;92.68;97275.97;5038417;28;20209;-71
2022/07/09 02:47:18;;;;;;;8.57;2.60;;;;;;;13.89;93.17;97274.38;5038183;28;20205;-72
2022/07/09 02:49:45;;;;;;;6.35;3.17;;;;;;;13.73;94.28;97277.06;5034957;28;20229;-71
2022/07/09 02:52:11;;;;;;;4.40;3.17;;;;;;;13.65;95.50;97279.75;5038194;28;20229;-71
2022/07/09 02:54:38;;;;;;;5.65;2.90;;;;;;;13.63;94.71;97278.25;5038203;28;20235;-72
2022/07/09 02:57:05;;;;;;;4.97;3.10;;;;;;;13.95;94.12;97272.84;5038132;28;20205;-71
2022/07/09 02:59:32;;;;;;;3.67;2.45;;;;;;;13.63;94.22;97279.13;5037527;28;20247;-71
2022/07/09 03:01:58;;;;;;;7.13;2.88;;;;;;;13.80;94.10;97275.41;5037984;28;20231;-72
2022/07/09 03:04:26;;;;;;;4.82;3.03;;;;;;;14.00;94.00;97274.81;5037923;28;20216;-72
2022/07/09 03:06:52;;;;;;;4.35;2.60;;;;;;;13.97;93.53;97270.84;5038308;28;20201;-72
2022/07/09 03:09:19;;;;;;;7.32;2.88;;;;;;;13.94;93.11;97266.72;5037791;28;20225;-72
2022/07/09 03:11:45;;;;;;;4.85;2.72;;;;;;;13.85;94.40;97262.47;5037622;28;20696;-72
2022/07/09 03:14:12;;;;;;;3.72;2.63;;;;;;;14.01;92.72;97270.31;5037614;28;20295;-72
2022/07/09 03:16:38;;;;;;;3.08;2.45;;;;;;;13.97;91.35;97266.38;5037978;28;20250;-72
2022/07/09 03:19:05;;;;;;;6.47;2.80;;;;;;;13.93;93.29;97264.25;5037707;28;20236;-72
2022/07/09 03:21:32;;;;;;;4.00;2.70;;;;;;;13.95;92.81;97263.09;5037745;28;20708;-71
2022/07/09 03:23:59;;;;;;;8.13;2.58;;;;;;;13.53;93.43;97270.53;5034091;28;20212;-72
2022/07/09 03:26:25;;;;;;;7.03;3.10;;;;;;;13.62;92.45;97280.09;5037224;28;20204;-71
2022/07/09 03:28:52;;;;;;;4.38;3.15;;;;;;;13.65;93.07;97277.09;5037566;28;20209;-71
2022/07/09 03:31:18;;;;;;;5.75;3.00;;;;;;;13.46;93.36;97274.84;5037439;28;21204;-72
2022/07/09 03:33:45;;;;;;;5.72;3.08;;;;;;;13.77;91.23;97282.84;5036260;28;20704;-72
2022/07/09 03:36:11;;;;;;;4.68;2.88;;;;;;;13.84;93.71;97271.41;5037749;28;20600;-72
2022/07/09 03:38:39;;;;;;;4.57;2.88;;;;;;;13.86;91.33;97276.53;5037457;28;20217;-72
2022/07/09 03:41:06;;;;;;;7.90;2.80;;;;;;;14.00;90.84;97279.28;5037052;28;20210;-73
2022/07/09 03:43:32;;;;;;;4.47;2.92;;;;;;;13.59;94.83;97283.09;5036888;28;20201;-72
2022/07/09 03:45:59;;;;;;;6.50;3.40;;;;;;;13.49;91.96;97282.47;5037719;28;20205;-72
2022/07/09 03:48:25;;;;;;;6.43;3.00;;;;;;;13.37;92.95;97292.75;5037582;28;20219;-71
2022/07/09 03:50:52;;;;;;;6.38;3.30;;;;;;;13.46;91.61;97293.38;5037143;28;20236;-72
2022/07/09 03:53:19;;;;;;;7.90;3.20;;;;;;;13.38;91.74;97295.22;5036828;28;20752;-71
2022/07/09 03:55:46;;;;;;;9.07;3.50;;;;;;;13.43;92.60;97287.59;5037160;28;20225;-72
2022/07/09 03:58:13;;;;;;;5.85;3.28;;;;;;;13.36;93.29;97291.09;5037587;28;20209;-72
2022/07/09 04:00:39;;;;;;;7.15;3.50;;;;;;;13.35;93.78;97294.72;5037170;28;20225;-71
2022/07/09 04:03:06;;;;;;;5.10;3.10;;;;;;;13.54;92.18;97296.03;5036578;28;20688;-72
2022/07/09 04:05:32;;;;;;;7.28;3.20;;;;;;;13.44;92.73;97284.78;5037360;28;20202;-72
2022/07/09 04:07:59;;;;;;;7.03;3.42;;;;;;;13.45;93.54;97283.78;5037578;28;20205;-72
2022/07/09 04:10:26;;;;;;;4.15;2.80;;;;;;;13.43;93.55;97290.25;5037071;28;20224;-72
2022/07/09 04:12:55;;;;;;;5.25;2.53;;;;;;;13.77;92.66;97288.16;5036123;28;20220;-72
2022/07/09 04:15:21;;;;;;;9.70;3.40;;;;;;;13.55;93.35;97289.69;5036525;28;20261;-72
2022/07/09 04:17:48;;;;;;;6.93;2.95;;;;;;;13.53;94.17;97298.81;5037382;28;20200;-71
2022/07/09 04:20:14;;;;;;;9.13;3.38;;;;;;;13.63;93.74;97294.16;5036844;28;20616;-72
2022/07/09 04:22:41;;;;;;;7.55;3.05;;;;;;;13.59;94.40;97293.69;5035899;28;20208;-72
2022/07/09 04:25:08;;;;;;;7.32;3.72;;;;;;;13.93;92.91;97290.75;5034328;28;20209;-72
2022/07/09 04:27:35;;;;;;;7.07;3.58;;;;;;;14.00;92.11;97288.06;5037360;28;20205;-72
2022/07/09 04:30:04;;;;;;;8.00;3.75;;;;;;;14.03;93.48;97292.19;5036639;28;20282;-72
2022/07/09 04:32:30;;;;;;;6.75;3.30;;;;;;;14.18;92.72;97288.66;5035384;28;20216;-72
2022/07/09 04:34:57;;;;;;;6.82;3.20;;;;;;;14.14;93.63;97286.53;5036301;28;20205;-72
2022/07/09 04:37:23;;;;;;;5.28;3.30;;;;;;;14.28;93.16;97296.41;5036560;28;20977;-72
2022/07/09 04:39:50;;;;;;;8.05;3.60;;;;;;;14.26;92.40;97301.06;5037187;28;20593;-72
2022/07/09 04:42:16;;;;;;;6.60;3.38;;;;;;;14.21;93.06;97296.25;5036453;28;20204;-72
2022/07/09 04:44:43;;;;;;;9.30;3.35;;;;;;;14.37;93.71;97301.50;5036710;28;20201;-71
2022/07/09 04:47:11;;;;;;;4.82;3.58;;;;;;;14.52;93.34;97298.91;5037045;28;20205;-72
2022/07/09 04:49:37;;;;;;;4.93;3.53;;;;;;;14.60;92.06;97301.50;5036543;28;20229;-72
2022/07/09 04:52:05;;;;;;;6.90;3.15;;;;;;;14.73;90.09;97302.59;5036230;28;20681;-72
2022/07/09 04:54:31;;;;;;;6.85;3.25;;;;;;;14.85;90.53;97301.16;5036299;28;20208;-72
2022/07/09 04:56:58;;;;;;;9.93;3.42;;;;;;;14.83;88.33;97298.69;5036536;28;20225;-72
2022/07/09 04:59:25;;;;;;;6.45;3.20;;;;;;;14.93;87.59;97309.06;5036289;28;20228;-70
2022/07/09 05:01:51;;;;;;;6.38;3.17;;;;;;;14.74;86.01;97306.91;5036421;28;20627;-72
2022/07/09 05:04:19;;;;;;;6.07;3.45;;;;;;;14.93;87.25;97309.91;5038573;28;20216;-72
2022/07/09 05:06:45;;;;;;;9.75;3.35;;;;;;;14.78;85.74;97310.84;5040295;28;20205;-72
2022/07/09 05:09:12;;;;;;;10.27;3.35;;;;;;;14.58;85.23;97308.84;5039858;28;20228;-72
2022/07/09 05:11:38;;;;;;;5.47;3.20;;;;;;;14.94;85.67;97305.41;5040244;28;21213;-71
2022/07/09 05:14:05;;;;;;;7.15;3.28;;;;;;;15.22;86.16;97312.66;5039611;28;20209;-71
2022/07/09 05:16:31;;;;;;;9.40;3.65;;;;;;;15.38;85.24;97312.53;5039532;28;20232;-71
2022/07/09 05:18:58;;;;;;;9.48;3.58;;;;;;;15.60;84.98;97314.28;5039961;28;20225;-72
2022/07/09 05:21:26;;;;;;;6.57;3.47;;;;;;;15.86;83.70;97315.50;5039829;28;20220;-72
2022/07/09 05:23:52;;;;;;;9.40;3.42;;;;;;;15.81;83.89;97311.72;5038657;28;20221;-72
2022/07/09 05:26:19;;;;;;;7.47;3.25;;;;;;;15.74;82.53;97310.81;5037473;28;20193;-71
2022/07/09 05:28:46;;;;;;;7.65;3.03;;;;;;;15.64;81.79;97302.28;5039744;28;20213;-72
2022/07/09 05:31:12;;;;;;;4.75;3.28;;;;;;;15.37;82.29;97311.69;5039599;28;20209;-71
2022/07/09 05:33:39;;;;;;;5.28;2.95;;;;;;;15.10;83.91;97313.25;5039125;28;20231;-70
2022/07/09 05:36:06;;;;;;;5.05;3.10;;;;;;;15.15;83.26;97317.00;5039621;28;20225;-72
2022/07/09 05:38:34;;;;;;;7.18;3.50;;;;;;;14.97;85.65;97313.84;5039560;28;20216;-71
2022/07/09 05:41:01;;;;;;;6.63;3.20;;;;;;;15.01;84.51;97312.47;5039539;28;20697;-71
2022/07/09 05:43:27;;;;;;;5.20;3.10;;;;;;;15.36;84.59;97314.50;5038850;28;20268;-72
2022/07/09 05:45:54;;;;;;;9.25;4.00;;;;;;;15.42;84.42;97311.97;5039449;28;20223;-72
2022/07/09 05:48:20;;;;;;;10.45;3.20;;;;;;;15.62;82.93;97304.31;5039073;28;20205;-70
2022/07/09 05:50:46;;;;;;;8.80;3.83;;;;;;;15.62;82.27;97306.97;5039222;28;20221;-71
2022/07/09 05:53:13;;;;;;;12.30;3.58;;;;;;;15.81;83.72;97303.75;5038811;28;20205;-72
2022/07/09 05:55:41;;;;;;;5.07;3.22;;;;;;;16.01;84.42;97311.84;5039386;28;20643;-71
2022/07/09 05:58:07;;;;;;;4.95;3.20;;;;;;;16.03;82.69;97312.44;5039796;28;20205;-72
2022/07/09 06:00:34;;;;;;;4.68;3.10;;;;;;;16.20;81.82;97308.56;5039217;28;20233;-71
2022/07/09 06:03:00;;;;;;;10.88;3.55;;;;;;;16.12;81.67;97306.03;5038307;28;20640;-71
2022/07/09 06:05:27;;;;;;;9.52;3.83;;;;;;;15.80;80.82;97310.09;5038676;28;20205;-72
2022/07/09 06:07:53;;;;;;;7.47;3.63;;;;;;;15.45;82.07;97310.78;5039233;28;20212;-71
2022/07/09 06:10:20;;;;;;;6.45;3.20;;;;;;;15.74;81.91;97308.97;5039158;28;20224;-72
2022/07/09 06:12:48;;;;;;;8.05;3.42;;;;;;;16.06;85.27;97306.78;5038438;28;20225;-72
2022/07/09 06:15:14;;;;;;;7.88;3.33;;;;;;;15.71;83.27;97308.53;5039044;28;20212;-72
2022/07/09 06:17:41;;;;;;;5.80;2.78;;;;;;;15.61;81.33;97310.63;5038359;28;20225;-71
2022/07/09 06:20:08;;;;;;;6.03;2.95;;;;;;;15.59;81.50;97307.31;5038640;28;21056;-71
2022/07/09 06:22:35;;;;;;;9.48;3.42;;;;;;;15.59;83.08;97309.97;5038371;28;20212;-71
2022/07/09 06:25:02;;;;;;;9.30;3.83;;;;;;;15.94;83.14;97302.13;5036011;28;20212;-70
2022/07/09 06:27:28;;;;;;;10.02;3.30;;;;;;;16.24;82.17;97303.72;5038528;28;20661;-72
2022/07/09 06:29:56;;;;;;;5.93;3.63;;;;;;;16.45;83.63;97299.31;5038484;28;20256;-71
2022/07/09 06:32:23;;;;;;;11.70;3.90;;;;;;;16.08;81.75;97304.75;5038495;28;20205;-72
2022/07/09 06:34:49;;;;;;;8.18;3.25;;;;;;;16.12;82.01;97303.38;5038775;28;20205;-72
2022/07/09 06:37:16;;;;;;;8.32;3.38;;;;;;;16.43;82.54;97297.84;5038300;28;20243;-72
2022/07/09 06:39:45;;;;;;;7.90;3.90;;;;;;;16.75;81.58;97290.22;5038622;28;20225;-72
2022/07/09 06:42:13;;;;;;;8.10;3.33;;;;;;;17.02;80.94;97294.78;5039551;28;20201;-72
2022/07/09 06:44:39;;;;;;;7.22;3.17;;;;;;;17.29;82.74;97287.69;5037536;28;20201;-72
2022/07/09 06:47:07;;;;;;;7.40;3.55;;;;;;;17.58;80.02;97282.16;5038094;28;20211;-71
2022/07/09 06:49:34;;;;;;;4.93;3.17;;;;;;;17.68;77.51;97287.13;5038882;28;20232;-72
2022/07/09 06:52:01;;;;;;;7.55;3.25;;;;;;;17.65;75.81;97290.19;5038791;28;20629;-72
2022/07/09 06:54:28;;;;;;;7.72;3.03;;;;;;;17.58;75.17;97290.16;5037231;28;20915;-72
2022/07/09 06:56:56;;;;;;;6.25;3.00;;;;;;;17.42;74.94;97286.97;5038265;28;20225;-72
2022/07/09 06:59:22;;;;;;;6.57;3.05;;;;;;;17.83;74.94;97283.34;5038228;28;20239;-72
2022/07/09 07:01:49;;;;;;;5.55;2.90;;;;;;;17.83;75.23;97283.34;5037722;28;20204;-71
2022/07/09 07:04:17;;;;;;;5.97;2.70;;;;;;;18.11;73.30;97274.25;5036053;28;20201;-72
2022/07/09 07:06:43;;;;;;;9.55;3.10;;;;;;;18.02;72.71;97274.63;5037711;28;20208;-72
2022/07/09 07:09:10;;;;;;;6.72;2.50;;;;;;;18.15;70.52;97274.69;5037899;28;20232;-71
2022/07/09 07:11:36;;;;;;;6.70;2.53;;;;;;;18.22;70.86;97276.38;5037233;28;20212;-71
2022/07/09 07:14:03;;;;;;;10.43;2.85;;;;;;;18.36;70.93;97286.91;5037495;28;20205;-72
2022/07/09 07:16:29;;;;;;;6.50;2.70;;;;;;;18.53;72.61;97274.88;5038148;28;20225;-72
2022/07/09 07:18:56;;;;;;;3.55;2.40;;;;;;;18.65;71.44;97278.59;5037699;28;20205;-71
2022/07/09 07:21:24;;;;;;;4.20;2.42;;;;;;;19.15;71.06;97288.78;5037413;28;20213;-72
2022/07/09 07:23:50;;;;;;;5.50;2.78;;;;;;;19.10;71.81;97284.03;5037202;28;20209;-72
2022/07/09 07:26:17;;;;;;;6.30;2.83;;;;;;;18.98;68.36;97284.84;5037030;28;20566;-72
2022/07/09 07:28:43;;;;;;;4.50;2.33;;;;;;;19.24;68.42;97280.34;5037322;28;20225;-72
2022/07/09 07:31:09;;;;;;;4.43;2.40;;;;;;;19.34;69.75;97282.63;5037677;28;20201;-72
2022/07/09 07:33:36;;;;;;;6.25;2.50;;;;;;;19.51;69.45;97276.63;5037219;28;20209;-72
2022/07/09 07:36:03;;;;;;;9.52;3.13;;;;;;;19.63;69.28;97277.66;5036664;28;20215;-72
2022/07/09 07:38:30;;;;;;;3.80;2.40;;;;;;;19.83;70.20;97276.59;5037436;28;20216;-72
2022/07/09 07:40:57;;;;;;;6.63;2.28;;;;;;;19.79;72.66;97275.38;5037429;28;20610;-72
2022/07/09 07:43:23;;;;;;;7.22;2.40;;;;;;;20.15;66.80;97275.72;5036290;28;20211;-71
2022/07/09 07:45:50;;;;;;;3.45;2.10;;;;;;;19.91;69.16;97279.09;5037555;28;20201;-70
2022/07/09 07:48:16;;;;;;;4.05;1.70;;;;;;;20.22;67.70;97273.84;5037557;28;20216;-71
2022/07/09 07:50:43;;;;;;;4.82;2.03;;;;;;;20.23;66.98;97275.50;5036714;28;20225;-72
2022/07/09 07:53:09;;;;;;;6.38;1.75;;;;;;;20.47;65.30;97269.41;5036619;28;20263;-71
2022/07/09 07:55:37;;;;;;;4.57;1.90;;;;;;;20.53;65.08;97268.53;5038227;28;20205;-72
2022/07/09 07:58:03;;;;;;;5.38;1.70;;;;;;;20.73;63.87;97274.66;5036665;28;20225;-72
2022/07/09 08:00:30;;;;;;;4.88;2.03;;;;;;;20.75;63.99;97275.25;5036590;28;20225;-71
2022/07/09 08:02:56;;;;;;;7.35;1.90;;;;;;;20.70;69.12;97264.34;5036827;28;20209;-72
2022/07/09 08:05:23;;;;;;;3.47;1.85;;;;;;;20.82;66.86;97268.00;5036887;28;20201;-72
2022/07/09 08:07:49;;;;;;;5.18;1.65;;;;;;;20.89;65.31;97266.94;5036223;28;20193;-72
2022/07/09 08:10:16;;;;;;;4.60;1.52;;;;;;;21.04;66.00;97260.25;5036860;28;20225;-72
2022/07/09 08:12:44;;;;;;;6.35;1.83;;;;;;;21.26;62.65;97255.34;5036045;28;20227;-72
2022/07/09 08:15:11;;;;;;;4.53;1.52;;;;;;;21.25;60.73;97264.41;5036805;28;20209;-71
2022/07/09 08:17:38;;;;;;;2.65;1.17;;;;;;;21.45;62.39;97255.16;5036892;28;20589;-72
2022/07/09 08:20:05;;;;;;;4.07;1.75;;;;;;;21.56;60.64;97258.00;5036569;28;20240;-72
2022/07/09 08:22:32;;;;;;;4.43;1.30;;;;;;;21.57;61.65;97261.47;5035966;28;20496;-72
2022/07/09 08:24:58;;;;;;;4.55;1.40;;;;;;;21.40;61.06;97263.03;5037238;28;20208;-71
2022/07/09 08:27:25;;;;;;;5.38;1.50;;;;;;;21.46;61.58;97259.50;5037061;28;20197;-71
2022/07/09 08:29:52;;;;;;;3.30;1.30;;;;;;;21.54;67.61;97256.56;5036593;28;20224;-72
2022/07/09 08:32:19;;;;;;;3.70;1.20;;;;;;;21.97;59.31;97262.72;5036142;28;20201;-71
2022/07/09 08:34:45;;;;;;;3.85;1.20;;;;;;;21.99;58.64;97260.66;5036789;28;20227;-71
2022/07/09 08:37:12;;;;;;;1.45;1.00;;;;;;;22.07;58.08;97253.94;5037673;28;20240;-71
2022/07/09 08:39:38;;;;;;;2.63;1.30;;;;;;;22.19;58.30;97249.44;5040777;28;20225;-72
2022/07/09 08:42:09;;;;;;;1.08;0.90;;;;;;;22.65;58.78;97260.47;5041036;28;20205;-71
2022/07/09 08:44:39;;;;;;;2.28;0.82;;;;;;;22.94;56.29;97248.91;5040054;28;20209;-71
2022/07/09 08:47:07;;;;;;;2.72;0.90;;;;;;;23.04;55.98;97254.56;5040732;28;20208;-71
2022/07/09 08:49:34;;;;;;;1.25;0.70;;;;;;;22.53;58.27;97242.66;5040644;28;20239;-71
2022/07/09 08:52:03;;;;;;;2.13;1.02;;;;;;;22.48;59.10;97242.50;5040912;28;20220;-71
2022/07/09 08:54:32;;;;;;;2.83;0.80;;;;;;;22.50;59.92;97246.59;5039927;28;20556;-71
2022/07/09 08:56:59;;;;;;;2.45;1.00;;;;;;;22.30;60.88;97240.69;5040746;28;20229;-71
2022/07/09 08:59:25;;;;;;;1.70;1.08;;;;;;;22.45;60.41;97246.47;5040349;28;20228;-71
2022/07/09 09:01:52;;;;;;;0.90;0.57;;;;;;;22.42;56.78;97246.94;5040883;28;20205;-71
2022/07/09 09:04:20;;;;;;;1.23;0.68;;;;;;;22.35;57.69;97240.84;5039490;28;20206;-71
2022/07/09 09:06:47;;;;;;;5.95;1.13;;;;;;;22.24;58.32;97240.72;5039903;28;20212;-71
2022/07/09 09:09:19;;;;;;;5.53;1.00;;;;;;;22.30;58.18;97237.16;5040472;28;20235;-71
2022/07/09 09:11:49;;;;;;;3.72;0.70;;;;;;;22.42;56.49;97233.50;5039857;28;20691;-71
2022/07/09 09:14:21;;;;;;;1.50;0.80;;;;;;;22.32;57.75;97229.72;5038959;28;20232;-71
2022/07/09 09:16:48;;;;;;;2.65;0.70;;;;;;;22.45;58.19;97227.66;5039644;28;20225;-71
2022/07/09 09:19:15;;;;;;;2.10;0.80;;;;;;;22.63;56.11;97227.63;5039960;28;20776;-71
2022/07/09 09:21:43;;;;;;;2.70;0.80;;;;;;;22.61;53.00;97221.66;5039873;28;20220;-71
2022/07/09 09:24:09;;;;;;;3.28;0.70;;;;;;;22.72;53.94;97232.47;5039743;28;20202;-72
2022/07/09 09:26:37;;;;;;;1.08;0.75;;;;;;;22.86;54.90;97225.00;5039969;28;20205;-71
2022/07/09 09:29:04;;;;;;;1.92;0.70;;;;;;;23.57;55.03;97219.31;5039471;28;20225;-71
2022/07/09 09:31:33;;;;;;;1.13;0.50;;;;;;;23.57;52.23;97213.13;5039687;28;20410;-72
2022/07/09 09:34:11;;;;;;;0.80;0.73;;;;;;;23.20;54.48;97221.63;5039150;28;20224;-71
2022/07/09 09:36:39;;;;;;;1.80;0.85;;;;;;;23.29;50.66;97206.78;5039480;28;20209;-71
2022/07/09 09:39:15;;;;;;;3.90;0.70;;;;;;;23.44;50.75;97206.09;5039438;28;20713;-72
2022/07/09 09:41:43;;;;;;;0.60;0.55;;;;;;;23.27;52.19;97211.56;5039883;28;20205;-71
2022/07/09 09:44:11;;;;;;;1.95;0.82;;;;;;;23.03;52.73;97199.97;5038842;28;20209;-71
2022/07/09 09:46:38;;;;;;;2.63;0.70;;;;;;;23.16;55.12;97198.94;5039313;28;20205;-70
2022/07/09 09:49:07;;;;;;;3.13;0.73;;;;;;;23.10;52.76;97205.25;5039199;28;21197;-71
2022/07/09 09:51:36;;;;;;;1.73;0.70;;;;;;;23.40;51.80;97194.16;5039572;28;20727;-71
2022/07/09 09:54:03;;;;;;;1.67;0.90;;;;;;;23.94;51.99;97188.41;5038665;28;20377;-71
2022/07/09 09:56:32;;;;;;;2.22;0.70;;;;;;;23.86;51.23;97191.47;5040482;28;20233;-73
2022/07/09 09:58:59;;;;;;;1.58;0.63;;;;;;;23.87;49.71;97193.13;5039066;28;20267;-72
2022/07/09 10:01:26;;;;;;;2.92;0.73;;;;;;;23.72;51.85;97184.72;5039157;28;20212;-71
2022/07/09 10:03:54;;;;;;;1.85;0.90;;;;;;;24.31;50.41;97173.56;5035315;28;20694;-73
2022/07/09 10:06:20;;;;;;;1.65;0.80;;;;;;;24.59;50.44;97177.09;5038203;28;20209;-71
2022/07/09 10:08:47;;;;;;;2.17;0.60;;;;;;;24.63;48.47;97179.09;5038053;28;20201;-71
2022/07/09 10:11:14;;;;;;;2.15;0.70;;;;;;;24.26;47.13;97168.06;5039619;28;20209;-72
2022/07/09 10:13:52;;;;;;;2.92;0.82;;;;;;;24.50;46.51;97172.34;5038874;28;20220;-73
2022/07/09 10:16:19;;;;;;;3.45;0.77;;;;;;;23.77;46.42;97170.56;5039176;28;20209;-72
2022/07/09 10:18:52;;;;;;;4.28;0.60;;;;;;;24.14;45.94;97170.00;5038655;28;20228;-73
2022/07/09 10:21:19;;;;;;;2.45;0.60;;;;;;;23.32;50.65;97173.00;5038793;28;20224;-73
2022/07/09 10:23:51;;;;;;;2.05;0.60;;;;;;;23.00;49.51;97176.25;5038018;28;20201;-72
2022/07/09 10:26:18;;;;;;;2.88;0.80;;;;;;;23.87;51.39;97165.34;5038887;28;20206;-73
2022/07/09 10:28:44;;;;;;;2.63;0.70;;;;;;;24.21;47.77;97163.41;5038572;28;20209;-71
2022/07/09 10:31:18;;;;;;;0.88;0.60;;;;;;;24.43;45.14;97163.59;5038722;28;20213;-73
2022/07/09 10:33:53;;;;;;;0.77;0.60;;;;;;;25.12;46.61;97153.28;5037700;28;20201;-72
2022/07/09 10:36:20;;;;;;;1.30;0.70;;;;;;;25.22;43.80;97156.94;5038490;28;20215;-74
2022/07/09 10:38:54;;;;;;;1.73;0.50;;;;;;;24.52;43.09;97156.78;5038617;28;20224;-75
2022/07/09 10:41:22;;;;;;;0.75;0.60;;;;;;;24.76;44.49;97153.72;5038697;28;20290;-76
2022/07/09 10:43:51;;;;;;;3.45;0.50;;;;;;;24.19;42.88;97153.94;5037417;28;20204;-75
2022/07/09 10:46:19;;;;;;;1.02;0.60;;;;;;;24.91;46.13;97148.56;5038409;28;20216;-74
2022/07/09 10:48:47;;;;;;;1.58;0.65;;;;;;;25.44;45.02;97152.44;5038930;28;20256;-75
2022/07/09 10:51:19;;;;;;;3.13;0.70;;;;;;;25.64;42.73;97141.94;5037250;28;20442;-73
2022/07/09 10:53:45;;;;;;;0.73;0.50;;;;;;;25.73;39.56;97153.97;5037534;28;20233;-75
2022/07/09 10:56:12;;;;;;;1.20;0.70;;;;;;;25.17;41.86;97160.38;5038662;28;20315;-74
2022/07/09 10:58:38;;;;;;;1.80;0.60;;;;;;;24.93;41.42;97165.31;5038056;28;20232;-75
2022/07/09 11:01:06;;;;;;;1.90;0.70;;;;;;;24.31;44.73;97152.00;5036830;28;20225;-72
2022/07/09 11:03:34;;;;;;;2.63;0.80;;;;;;;24.01;44.27;97159.50;5037647;28;20201;-74
2022/07/09 11:06:00;;;;;;;2.33;0.80;;;;;;;23.59;45.06;97149.13;5037662;28;20204;-74
2022/07/09 11:08:26;;;;;;;1.67;0.50;;;;;;;23.68;43.17;97155.78;5037681;28;20205;-75
2022/07/09 11:10:53;;;;;;;4.95;1.27;;;;;;;23.48;45.51;97153.44;5037952;28;20228;-73
2022/07/09 11:13:24;;;;;;;3.25;0.93;;;;;;;23.69;47.31;97152.88;5037083;28;20294;-75
2022/07/09 11:15:50;;;;;;;1.95;0.85;;;;;;;23.12;51.41;97160.13;5036428;28;20216;-75
2022/07/09 11:18:17;;;;;;;2.03;0.80;;;;;;;23.08;50.44;97153.56;5036545;28;20587;-75
2022/07/09 11:20:46;;;;;;;2.88;0.98;;;;;;;23.13;49.56;97156.34;5037833;28;20229;-73
2022/07/09 11:23:15;;;;;;;0.93;0.70;;;;;;;23.27;49.17;97155.09;5036269;28;20200;-74
2022/07/09 11:25:42;;;;;;;1.33;0.60;;;;;;;23.10;50.69;97151.47;5037592;28;20670;-75
2022/07/09 11:28:08;;;;;;;1.40;0.70;;;;;;;23.24;49.89;97147.50;5036886;28;20204;-76
2022/07/09 11:30:36;;;;;;;1.35;0.60;;;;;;;23.51;49.57;97144.91;5037780;28;20216;-73
2022/07/09 11:33:03;;;;;;;1.58;0.70;;;;;;;23.80;49.64;97143.94;5036191;28;20292;-75